createdAt,value
2017-10-22T00:00:24.039Z,12.61
2017-10-22T00:01:33.740Z,12.62
2017-10-22T00:02:43.798Z,12.58
2017-10-22T00:03:53.168Z,12.63
2017-10-22T00:05:02.880Z,12.62
2017-10-22T00:06:12.574Z,12.63
2017-10-22T00:07:22.618Z,12.63
2017-10-22T00:08:32.300Z,12.61
2017-10-22T00:09:42.057Z,12.62
2017-10-22T00:10:51.773Z,12.56
2017-10-22T00:12:01.816Z,12.49
2017-10-22T00:13:11.503Z,12.54
2017-10-22T00:14:21.532Z,12.49
2017-10-22T00:15:31.580Z,12.55
2017-10-22T00:16:40.923Z,12.46
2017-10-22T00:17:50.954Z,12.48
2017-10-22T00:19:00.303Z,12.46
2017-10-22T00:20:10.332Z,12.46
2017-10-22T00:21:20.370Z,12.54
2017-10-22T00:22:29.722Z,12.48
2017-10-22T00:23:39.091Z,12.54
2017-10-22T00:24:48.783Z,12.43
2017-10-22T00:25:58.806Z,12.56
2017-10-22T00:27:08.826Z,12.59
2017-10-22T00:28:18.515Z,12.43
2017-10-22T00:29:28.192Z,12.51
2017-10-22T00:30:38.225Z,12.49
2017-10-22T00:31:47.925Z,12.49
2017-10-22T00:32:57.947Z,12.46
2017-10-22T00:34:07.306Z,12.43
2017-10-22T00:35:17.679Z,12.46
2017-10-22T00:36:27.718Z,12.48
2017-10-22T00:37:37.064Z,12.43
2017-10-22T00:38:46.756Z,12.41
2017-10-22T00:39:57.123Z,12.33
2017-10-22T00:41:06.477Z,12.3
2017-10-22T00:42:16.156Z,12.36
2017-10-22T00:43:26.528Z,12.29
2017-10-22T00:44:36.550Z,12.36
2017-10-22T00:45:46.585Z,12.33
2017-10-22T00:46:56.947Z,12.31
2017-10-22T00:48:07.000Z,12.33
2017-10-22T00:49:17.031Z,12.33
2017-10-22T00:50:27.050Z,12.31
2017-10-22T00:51:36.737Z,12.33
2017-10-22T00:52:46.761Z,12.3
2017-10-22T00:53:56.794Z,12.29
2017-10-22T00:55:06.826Z,12.3
2017-10-22T00:56:16.504Z,12.3
2017-10-22T00:57:25.512Z,12.31
2017-10-22T00:58:35.204Z,12.25
2017-10-22T00:59:44.902Z,12.23
2017-10-22T01:00:54.941Z,12.22
2017-10-22T01:02:04.302Z,12.3
2017-10-22T01:03:14.325Z,12.21
2017-10-22T01:04:24.367Z,12.29
2017-10-22T01:05:34.056Z,12.3
2017-10-22T01:06:44.077Z,12.19
2017-10-22T01:07:54.447Z,12.15
2017-10-22T01:09:03.808Z,12.22
2017-10-22T01:10:13.830Z,12.22
2017-10-22T01:11:23.865Z,12.12
2017-10-22T01:12:33.885Z,12.08
2017-10-22T01:13:43.897Z,12.13
2017-10-22T01:14:53.925Z,12.16
2017-10-22T01:16:03.970Z,12.22
2017-10-22T01:17:14.340Z,12.21
2017-10-22T01:18:24.365Z,12.19
2017-10-22T01:19:34.720Z,12.21
2017-10-22T01:20:44.416Z,12.19
2017-10-22T01:21:53.431Z,12.12
2017-10-22T01:23:02.820Z,12.08
2017-10-22T01:24:14.369Z,12.18
2017-10-22T01:25:25.335Z,12.15
2017-10-22T01:26:34.480Z,12.07
2017-10-22T01:27:44.737Z,12.18
2017-10-22T01:28:55.204Z,12.13
2017-10-22T01:30:05.389Z,12.04
2017-10-22T01:31:15.638Z,12.08
2017-10-22T01:32:26.114Z,12.07
2017-10-22T01:33:38.918Z,12.03
2017-10-22T01:34:51.642Z,12.05
2017-10-22T01:36:02.592Z,12.05
2017-10-22T01:37:13.164Z,12.08
2017-10-22T01:38:22.938Z,12.12
2017-10-22T01:39:33.118Z,12.08
2017-10-22T01:40:43.706Z,12.05
2017-10-22T01:41:53.395Z,12.16
2017-10-22T01:43:03.213Z,12.08
2017-10-22T01:44:13.447Z,12.04
2017-10-22T01:45:22.885Z,12.03
2017-10-22T01:46:33.023Z,12.04
2017-10-22T01:47:42.902Z,12.03
2017-10-22T01:48:52.316Z,12.01
2017-10-22T01:50:01.777Z,12.04
2017-10-22T01:51:11.697Z,12.07
2017-10-22T01:52:22.150Z,12.05
2017-10-22T01:53:32.639Z,12.03
2017-10-22T01:54:43.211Z,12
2017-10-22T01:55:53.654Z,12.04
2017-10-22T01:57:04.154Z,12.05
2017-10-22T01:58:14.049Z,12.04
2017-10-22T01:59:23.793Z,11.96
2017-10-22T02:00:32.959Z,12
2017-10-22T02:01:42.813Z,12.07
2017-10-22T02:02:53.273Z,12.05
2017-10-22T02:04:05.525Z,12.04
2017-10-22T02:05:17.164Z,12.04
2017-10-22T02:06:28.413Z,12.11
2017-10-22T02:07:38.520Z,11.98
2017-10-22T02:08:48.537Z,11.97
2017-10-22T02:09:58.552Z,12
2017-10-22T02:11:08.251Z,12.07
2017-10-22T02:12:17.918Z,11.98
2017-10-22T02:13:27.931Z,12.07
2017-10-22T02:14:37.616Z,12.04
2017-10-22T02:15:47.625Z,12.11
2017-10-22T02:16:57.298Z,12.12
2017-10-22T02:18:06.645Z,12.08
2017-10-22T02:19:15.986Z,12.05
2017-10-22T02:20:26.001Z,12.05
2017-10-22T02:21:36.037Z,12.01
2017-10-22T02:22:45.715Z,12.03
2017-10-22T02:23:55.726Z,12.07
2017-10-22T02:25:05.066Z,12.04
2017-10-22T02:26:15.096Z,12.04
2017-10-22T02:27:24.783Z,12.08
2017-10-22T02:28:35.133Z,12.07
2017-10-22T02:29:44.477Z,12.08
2017-10-22T02:30:53.828Z,12.07
2017-10-22T02:32:03.840Z,12.08
2017-10-22T02:33:13.848Z,12.16
2017-10-22T02:34:23.558Z,12.21
2017-10-22T02:35:33.229Z,12.16
2017-10-22T02:36:42.907Z,12.15
2017-10-22T02:37:52.252Z,12.26
2017-10-22T02:39:01.936Z,12.29
2017-10-22T02:40:11.948Z,12.31
2017-10-22T02:41:21.625Z,12.36
2017-10-22T02:42:30.970Z,12.29
2017-10-22T02:43:39.973Z,12.33
2017-10-22T02:44:48.981Z,12.41
2017-10-22T02:45:58.990Z,12.29
2017-10-22T02:47:08.338Z,12.44
2017-10-22T02:48:18.364Z,12.46
2017-10-22T02:49:28.716Z,12.46
2017-10-22T02:50:38.065Z,12.48
2017-10-22T02:51:47.743Z,12.54
2017-10-22T02:52:58.087Z,12.55
2017-10-22T02:54:08.105Z,12.56
2017-10-22T02:55:18.137Z,12.56
2017-10-22T02:56:28.495Z,12.54
2017-10-22T02:57:38.854Z,12.52
2017-10-22T02:58:48.872Z,12.55
2017-10-22T02:59:59.229Z,12.55
2017-10-22T03:01:08.917Z,12.46
2017-10-22T03:02:19.271Z,12.52
2017-10-22T03:03:28.952Z,12.51
2017-10-22T03:04:38.977Z,12.54
2017-10-22T03:05:48.315Z,12.51
2017-10-22T03:06:57.995Z,12.58
2017-10-22T03:08:07.673Z,12.54
2017-10-22T03:09:17.016Z,12.63
2017-10-22T03:10:27.375Z,12.63
2017-10-22T03:11:37.060Z,12.63
2017-10-22T03:12:46.748Z,12.55
2017-10-22T03:13:56.774Z,12.55
2017-10-22T03:15:06.783Z,12.63
2017-10-22T03:16:16.122Z,12.54
2017-10-22T03:17:25.801Z,12.58
2017-10-22T03:18:35.495Z,12.54
2017-10-22T03:19:45.513Z,12.41
2017-10-22T03:20:55.521Z,12.46
2017-10-22T03:22:05.197Z,12.55
2017-10-22T03:23:15.206Z,12.56
2017-10-22T03:24:25.236Z,12.56
2017-10-22T03:25:34.573Z,12.54
2017-10-22T03:26:43.935Z,12.52
2017-10-22T03:27:53.949Z,12.55
2017-10-22T03:29:03.643Z,12.52
2017-10-22T03:30:14.014Z,12.55
2017-10-22T03:31:24.382Z,12.52
2017-10-22T03:32:34.412Z,12.56
2017-10-22T03:33:44.096Z,12.51
2017-10-22T03:34:53.774Z,12.56
2017-10-22T03:36:03.793Z,12.46
2017-10-22T03:37:13.481Z,12.56
2017-10-22T03:38:23.161Z,12.55
2017-10-22T03:39:33.177Z,12.44
2017-10-22T03:40:42.856Z,12.51
2017-10-22T03:41:52.866Z,12.52
2017-10-22T03:43:02.547Z,12.49
2017-10-22T03:44:12.218Z,12.44
2017-10-22T03:45:22.228Z,12.55
2017-10-22T03:46:32.591Z,12.43
2017-10-22T03:47:41.935Z,12.46
2017-10-22T03:48:51.951Z,12.46
2017-10-22T03:50:01.625Z,12.44
2017-10-22T03:51:11.641Z,12.43
2017-10-22T03:52:21.657Z,12.41
2017-10-22T03:53:31.673Z,12.43
2017-10-22T03:54:41.352Z,12.44
2017-10-22T03:55:51.364Z,12.38
2017-10-22T03:57:01.376Z,12.4
2017-10-22T03:58:11.052Z,12.33
2017-10-22T03:59:21.091Z,12.29
2017-10-22T04:00:31.449Z,12.3
2017-10-22T04:01:41.463Z,12.18
2017-10-22T04:02:51.813Z,12.16
2017-10-22T04:04:02.160Z,12.08
2017-10-22T04:05:12.500Z,12.03
2017-10-22T04:06:21.509Z,11.97
2017-10-22T04:07:31.525Z,11.85
2017-10-22T04:08:41.209Z,11.88
2017-10-22T04:09:51.553Z,11.81
2017-10-22T04:11:00.891Z,11.75
2017-10-22T04:12:09.896Z,11.66
2017-10-22T04:13:19.258Z,11.59
2017-10-22T04:14:28.944Z,11.6
2017-10-22T04:15:38.629Z,11.53
2017-10-22T04:16:48.311Z,11.49
2017-10-22T04:17:58.318Z,11.48
2017-10-22T04:19:08.675Z,11.27
2017-10-22T04:20:18.728Z,11.38
2017-10-22T04:21:28.751Z,11.26
2017-10-22T04:22:38.433Z,11.24
2017-10-22T04:23:47.774Z,11.19
2017-10-22T04:24:57.447Z,11.12
2017-10-22T04:26:07.459Z,11.09
2017-10-22T04:27:16.851Z,11.02
2017-10-22T04:28:27.209Z,10.9
2017-10-22T04:29:36.549Z,10.93
2017-10-22T04:30:46.899Z,10.87
2017-10-22T04:31:56.270Z,10.81
2017-10-22T04:33:06.611Z,10.8
2017-10-22T04:34:16.622Z,10.75
2017-10-22T04:35:25.960Z,10.73
2017-10-22T04:36:35.635Z,10.66
2017-10-22T04:37:45.310Z,10.63
2017-10-22T04:38:55.322Z,10.58
2017-10-22T04:40:05.014Z,10.57
2017-10-22T04:41:14.352Z,10.52
2017-10-22T04:42:23.695Z,10.42
2017-10-22T04:43:34.036Z,10.51
2017-10-22T04:44:43.716Z,10.39
2017-10-22T04:45:54.092Z,10.43
2017-10-22T04:47:04.181Z,10.43
2017-10-22T04:48:14.205Z,10.39
2017-10-22T04:49:23.874Z,10.34
2017-10-22T04:50:33.563Z,10.35
2017-10-22T04:51:43.681Z,10.35
2017-10-22T04:52:54.076Z,10.34
2017-10-22T04:54:04.083Z,10.34
2017-10-22T04:55:14.134Z,10.25
2017-10-22T04:56:23.847Z,10.24
2017-10-22T04:57:33.864Z,10.25
2017-10-22T04:58:43.873Z,10.22
2017-10-22T04:59:53.548Z,10.26
2017-10-22T05:01:02.886Z,10.25
2017-10-22T05:02:12.245Z,10.17
2017-10-22T05:03:22.592Z,10.29
2017-10-22T05:04:32.599Z,10.28
2017-10-22T05:05:41.934Z,10.17
2017-10-22T05:06:51.603Z,10.14
2017-10-22T05:08:01.624Z,10.18
2017-10-22T05:09:11.637Z,10.14
2017-10-22T05:10:21.984Z,10.14
2017-10-22T05:11:31.990Z,10.11
2017-10-22T05:12:42.032Z,10.16
2017-10-22T05:13:51.714Z,10.16
2017-10-22T05:15:01.049Z,10.1
2017-10-22T05:16:10.053Z,10.14
2017-10-22T05:17:19.729Z,10.16
2017-10-22T05:18:29.075Z,10.14
2017-10-22T05:19:38.434Z,10.18
2017-10-22T05:20:48.443Z,10.2
2017-10-22T05:21:58.127Z,10.16
2017-10-22T05:23:07.804Z,10.07
2017-10-22T05:24:17.475Z,10.07
2017-10-22T05:25:26.814Z,10.17
2017-10-22T05:26:37.166Z,10.02
2017-10-22T05:27:46.521Z,10.07
2017-10-22T05:28:55.885Z,10.1
2017-10-22T05:30:04.902Z,10.09
2017-10-22T05:31:14.913Z,10.02
2017-10-22T05:32:24.619Z,10.04
2017-10-22T05:33:34.991Z,9.99
2017-10-22T05:34:45.028Z,10.02
2017-10-22T05:35:54.702Z,10.02
2017-10-22T05:37:04.713Z,10.07
2017-10-22T05:38:14.393Z,10.01
2017-10-22T05:39:24.404Z,10.09
2017-10-22T05:40:34.082Z,10.09
2017-10-22T05:41:43.754Z,10.04
2017-10-22T05:42:54.170Z,10.07
2017-10-22T05:44:04.528Z,10.14
2017-10-22T05:45:13.898Z,10.06
2017-10-22T05:46:24.242Z,10.09
2017-10-22T05:47:33.248Z,9.99
2017-10-22T05:48:43.607Z,10.09
2017-10-22T05:49:53.618Z,10.06
2017-10-22T05:51:02.956Z,10.09
2017-10-22T05:52:12.667Z,10.11
2017-10-22T05:53:22.354Z,10.01
2017-10-22T05:54:32.725Z,10.06
2017-10-22T05:55:42.066Z,10.01
2017-10-22T05:56:51.743Z,9.98
2017-10-22T05:58:01.086Z,10.09
2017-10-22T05:59:10.423Z,10.09
2017-10-22T06:00:20.450Z,10.04
2017-10-22T06:01:30.470Z,10.07
2017-10-22T06:02:40.182Z,10.07
2017-10-22T06:03:50.189Z,10.04
2017-10-22T06:05:00.220Z,10.07
2017-10-22T06:06:09.559Z,10.09
2017-10-22T06:07:19.894Z,9.99
2017-10-22T06:08:29.572Z,10.01
2017-10-22T06:09:39.979Z,10.09
2017-10-22T06:10:50.000Z,10.04
2017-10-22T06:12:00.021Z,10.11
2017-10-22T06:13:10.373Z,10.02
2017-10-22T06:14:20.045Z,10.11
2017-10-22T06:15:29.727Z,10.11
2017-10-22T06:16:39.430Z,10.11
2017-10-22T06:17:49.538Z,10.06
2017-10-22T06:18:58.885Z,10.14
2017-10-22T06:20:08.567Z,10.01
2017-10-22T06:21:18.922Z,10.02
2017-10-22T06:22:28.260Z,10.07
2017-10-22T06:23:38.271Z,10.11
2017-10-22T06:24:48.623Z,10.1
2017-10-22T06:25:57.962Z,10.06
2017-10-22T06:27:07.656Z,10.13
2017-10-22T06:28:17.668Z,10.17
2017-10-22T06:29:27.352Z,10.14
2017-10-22T06:30:37.359Z,10.17
2017-10-22T06:31:47.030Z,10.16
2017-10-22T06:32:57.398Z,10.13
2017-10-22T06:34:07.073Z,10.1
2017-10-22T06:35:17.119Z,10.14
2017-10-22T06:36:27.131Z,10.17
2017-10-22T06:37:37.138Z,10.18
2017-10-22T06:38:46.140Z,10.14
2017-10-22T06:39:55.819Z,10.17
2017-10-22T06:41:06.282Z,10.26
2017-10-22T06:42:16.023Z,10.28
2017-10-22T06:43:25.815Z,10.31
2017-10-22T06:44:36.157Z,10.31
2017-10-22T06:45:46.508Z,10.31
2017-10-22T06:46:56.523Z,10.31
2017-10-22T06:48:06.235Z,10.24
2017-10-22T06:49:15.579Z,10.28
2017-10-22T06:50:25.253Z,10.38
2017-10-22T06:51:34.939Z,10.26
2017-10-22T06:52:44.958Z,10.32
2017-10-22T06:53:54.975Z,10.24
2017-10-22T06:55:04.671Z,10.25
2017-10-22T06:56:14.019Z,10.28
2017-10-22T06:57:24.050Z,10.34
2017-10-22T06:58:33.754Z,10.29
2017-10-22T06:59:43.770Z,10.29
2017-10-22T07:00:53.442Z,10.31
2017-10-22T07:02:03.460Z,10.29
2017-10-22T07:03:12.820Z,10.44
2017-10-22T07:04:23.174Z,10.52
2017-10-22T07:05:33.206Z,10.46
2017-10-22T07:06:42.638Z,10.6
2017-10-22T07:07:53.082Z,10.58
2017-10-22T07:09:02.761Z,10.7
2017-10-22T07:10:12.431Z,10.66
2017-10-22T07:11:22.107Z,10.81
2017-10-22T07:12:31.842Z,10.73
2017-10-22T07:13:41.861Z,10.73
2017-10-22T07:14:51.003Z,10.68
2017-10-22T07:16:00.874Z,10.76
2017-10-22T07:17:10.700Z,10.78
2017-10-22T07:18:22.067Z,10.72
2017-10-22T07:19:34.723Z,10.6
2017-10-22T07:20:46.113Z,10.6
2017-10-22T07:21:56.238Z,10.58
2017-10-22T07:23:06.500Z,10.65
2017-10-22T07:24:16.612Z,10.63
2017-10-22T07:25:26.539Z,10.68
2017-10-22T07:26:36.358Z,10.62
2017-10-22T07:27:48.440Z,10.69
2017-10-22T07:29:01.872Z,10.66
2017-10-22T07:30:13.151Z,10.66
2017-10-22T07:31:22.980Z,10.66
2017-10-22T07:32:33.195Z,10.68
2017-10-22T07:33:43.323Z,10.57
2017-10-22T07:34:53.812Z,10.72
2017-10-22T07:36:03.617Z,10.73
2017-10-22T07:37:13.711Z,10.65
2017-10-22T07:38:24.200Z,10.65
2017-10-22T07:39:34.462Z,10.66
2017-10-22T07:40:44.584Z,10.62
2017-10-22T07:41:54.737Z,10.66
2017-10-22T07:43:04.671Z,10.69
2017-10-22T07:44:14.456Z,10.75
2017-10-22T07:45:24.571Z,10.86
2017-10-22T07:46:34.457Z,10.72
2017-10-22T07:47:44.851Z,10.84
2017-10-22T07:48:55.213Z,10.86
2017-10-22T07:50:05.702Z,10.95
2017-10-22T07:51:16.124Z,10.94
2017-10-22T07:52:26.277Z,11.02
2017-10-22T07:53:36.433Z,11.03
2017-10-22T07:54:46.636Z,11.02
2017-10-22T07:55:56.392Z,11.12
2017-10-22T07:57:05.840Z,11.06
2017-10-22T07:58:15.743Z,11.13
2017-10-22T07:59:26.471Z,11.11
2017-10-22T08:00:36.710Z,11.24
2017-10-22T08:01:47.243Z,11.33
2017-10-22T08:02:56.669Z,11.35
2017-10-22T08:04:07.326Z,11.27
2017-10-22T08:05:17.800Z,11.24
2017-10-22T08:06:28.304Z,11.27
2017-10-22T08:07:38.558Z,11.41
2017-10-22T08:08:48.367Z,11.45
2017-10-22T08:09:58.831Z,11.44
2017-10-22T08:11:09.319Z,11.33
2017-10-22T08:12:19.716Z,11.31
2017-10-22T08:13:29.805Z,11.35
2017-10-22T08:14:39.538Z,11.42
2017-10-22T08:15:48.602Z,11.53
2017-10-22T08:16:58.069Z,11.57
2017-10-22T08:18:07.468Z,11.53
2017-10-22T08:19:17.186Z,11.51
2017-10-22T08:20:26.696Z,11.53
2017-10-22T08:21:36.926Z,11.62
2017-10-22T08:22:46.770Z,11.66
2017-10-22T08:23:56.891Z,11.69
2017-10-22T08:25:06.660Z,11.79
2017-10-22T08:26:16.877Z,11.66
2017-10-22T08:27:26.983Z,11.62
2017-10-22T08:28:36.797Z,11.59
2017-10-22T08:29:46.354Z,11.57
2017-10-22T08:30:56.121Z,11.49
2017-10-22T08:32:06.288Z,11.59
2017-10-22T08:33:16.452Z,11.54
2017-10-22T08:34:26.555Z,11.57
2017-10-22T08:35:35.959Z,11.54
2017-10-22T08:36:46.516Z,11.54
2017-10-22T08:37:56.322Z,11.36
2017-10-22T08:39:06.034Z,11.33
2017-10-22T08:40:15.775Z,11.44
2017-10-22T08:41:25.189Z,11.31
2017-10-22T08:42:34.648Z,11.28
2017-10-22T08:43:45.005Z,11.3
2017-10-22T08:44:54.129Z,11.33
2017-10-22T08:46:03.884Z,11.38
2017-10-22T08:47:13.956Z,11.38
2017-10-22T08:48:24.080Z,11.35
2017-10-22T08:49:34.516Z,11.41
2017-10-22T08:50:43.950Z,11.41
2017-10-22T08:51:53.651Z,11.44
2017-10-22T08:53:03.728Z,11.39
2017-10-22T08:54:13.669Z,11.46
2017-10-22T08:55:23.470Z,11.44
2017-10-22T08:56:32.907Z,11.39
2017-10-22T08:57:42.420Z,11.53
2017-10-22T08:58:52.225Z,11.46
2017-10-22T09:00:01.986Z,11.44
2017-10-22T09:01:12.454Z,11.39
2017-10-22T09:02:21.919Z,11.39
2017-10-22T09:03:32.116Z,11.39
2017-10-22T09:04:42.240Z,11.45
2017-10-22T09:05:52.307Z,11.39
2017-10-22T09:07:02.098Z,11.44
2017-10-22T09:08:12.467Z,11.46
2017-10-22T09:09:21.888Z,11.41
2017-10-22T09:10:32.005Z,11.33
2017-10-22T09:11:42.358Z,11.39
2017-10-22T09:12:52.368Z,11.42
2017-10-22T09:14:02.385Z,11.57
2017-10-22T09:15:12.066Z,11.54
2017-10-22T09:16:22.101Z,11.63
2017-10-22T09:17:31.777Z,11.53
2017-10-22T09:18:41.481Z,11.53
2017-10-22T09:19:51.280Z,11.46
2017-10-22T09:21:01.654Z,11.42
2017-10-22T09:22:10.757Z,11.42
2017-10-22T09:23:20.475Z,11.48
2017-10-22T09:24:30.511Z,11.54
2017-10-22T09:25:40.921Z,11.46
2017-10-22T09:26:50.974Z,11.54
2017-10-22T09:28:00.368Z,11.49
2017-10-22T09:29:10.276Z,11.48
2017-10-22T09:30:21.552Z,11.39
2017-10-22T09:31:31.228Z,11.44
2017-10-22T09:32:40.905Z,11.35
2017-10-22T09:33:50.244Z,11.44
2017-10-22T09:35:00.292Z,11.28
2017-10-22T09:36:09.657Z,11.35
2017-10-22T09:37:19.721Z,11.39
2017-10-22T09:38:29.510Z,11.38
2017-10-22T09:39:39.440Z,11.44
2017-10-22T09:40:48.869Z,11.53
2017-10-22T09:41:59.089Z,11.54
2017-10-22T09:43:09.691Z,11.49
2017-10-22T09:44:19.532Z,11.59
2017-10-22T09:45:30.033Z,11.54
2017-10-22T09:46:39.925Z,11.56
2017-10-22T09:47:50.252Z,11.57
2017-10-22T09:49:00.660Z,11.59
2017-10-22T09:50:11.178Z,11.56
2017-10-22T09:51:21.042Z,11.49
2017-10-22T09:52:31.523Z,11.45
2017-10-22T09:53:41.347Z,11.39
2017-10-22T09:54:50.943Z,11.27
2017-10-22T09:55:59.674Z,11.36
2017-10-22T09:57:10.165Z,11.44
2017-10-22T09:58:20.118Z,11.46
2017-10-22T09:59:29.926Z,11.59
2017-10-22T10:00:40.097Z,11.54
2017-10-22T10:01:50.316Z,11.51
2017-10-22T10:03:00.428Z,11.56
2017-10-22T10:04:10.957Z,11.56
2017-10-22T10:05:21.211Z,11.59
2017-10-22T10:06:31.268Z,11.7
2017-10-22T10:07:40.980Z,11.74
2017-10-22T10:08:51.377Z,11.78
2017-10-22T10:10:01.086Z,11.82
2017-10-22T10:11:10.442Z,11.88
2017-10-22T10:12:20.136Z,11.97
2017-10-22T10:13:30.139Z,11.81
2017-10-22T10:14:39.835Z,11.81
2017-10-22T10:15:49.964Z,11.74
2017-10-22T10:17:00.490Z,11.77
2017-10-22T10:18:10.062Z,11.75
2017-10-22T10:19:19.559Z,11.64
2017-10-22T10:20:29.391Z,11.66
2017-10-22T10:21:39.191Z,11.72
2017-10-22T10:22:49.369Z,11.62
2017-10-22T10:23:59.915Z,11.79
2017-10-22T10:25:09.773Z,11.79
2017-10-22T10:26:19.961Z,11.79
2017-10-22T10:27:30.170Z,11.88
2017-10-22T10:28:40.021Z,11.88
2017-10-22T10:29:50.550Z,11.93
2017-10-22T10:31:00.352Z,12.01
2017-10-22T10:32:09.803Z,12.07
2017-10-22T10:33:19.255Z,12.12
2017-10-22T10:34:28.453Z,11.98
2017-10-22T10:35:39.021Z,11.9
2017-10-22T10:36:49.216Z,11.98
2017-10-22T10:37:59.343Z,11.97
2017-10-22T10:39:09.223Z,11.94
2017-10-22T10:40:19.387Z,11.97
2017-10-22T10:41:29.529Z,12.03
2017-10-22T10:42:39.387Z,12.11
2017-10-22T10:43:49.227Z,12.16
2017-10-22T10:44:59.480Z,12.16
2017-10-22T10:46:09.636Z,12.21
2017-10-22T10:47:19.408Z,12.21
2017-10-22T10:48:29.587Z,12.15
2017-10-22T10:49:40.050Z,12.15
2017-10-22T10:50:49.521Z,12.12
2017-10-22T10:51:59.678Z,12.15
2017-10-22T10:53:08.826Z,12.13
2017-10-22T10:54:18.658Z,12.22
2017-10-22T10:55:29.155Z,12.26
2017-10-22T10:56:39.271Z,12.26
2017-10-22T10:57:49.065Z,12.58
2017-10-22T10:58:58.892Z,12.48
2017-10-22T11:00:08.613Z,12.55
2017-10-22T11:01:19.123Z,12.69
2017-10-22T11:02:29.267Z,12.74
2017-10-22T11:03:39.175Z,12.8
2017-10-22T11:04:49.423Z,12.91
2017-10-22T11:05:59.597Z,12.95
2017-10-22T11:07:09.091Z,12.88
2017-10-22T11:08:19.288Z,12.8
2017-10-22T11:09:29.492Z,12.61
2017-10-22T11:10:39.305Z,12.56
2017-10-22T11:11:49.127Z,12.43
2017-10-22T11:12:59.003Z,12.44
2017-10-22T11:14:09.182Z,12.49
2017-10-22T11:15:19.362Z,12.36
2017-10-22T11:16:29.194Z,12.44
2017-10-22T11:17:39.438Z,12.37
2017-10-22T11:18:49.666Z,12.54
2017-10-22T11:20:00.211Z,12.41
2017-10-22T11:21:10.686Z,12.46
2017-10-22T11:22:20.173Z,12.63
2017-10-22T11:23:29.957Z,12.55
2017-10-22T11:24:39.464Z,12.34
2017-10-22T11:25:49.664Z,12.36
2017-10-22T11:26:59.139Z,12.26
2017-10-22T11:28:09.322Z,12.13
2017-10-22T11:29:18.871Z,12.05
2017-10-22T11:30:28.640Z,12.16
2017-10-22T11:31:38.456Z,12.23
2017-10-22T11:32:48.992Z,12.31
2017-10-22T11:33:59.431Z,12.44
2017-10-22T11:35:09.193Z,12.44
2017-10-22T11:36:19.019Z,12.44
2017-10-22T11:37:29.119Z,12.33
2017-10-22T11:38:39.233Z,12.31
2017-10-22T11:39:49.048Z,12.51
2017-10-22T11:40:59.285Z,12.48
2017-10-22T11:42:09.036Z,12.46
2017-10-22T11:43:18.514Z,12.54
2017-10-22T11:44:29.095Z,12.44
2017-10-22T11:45:38.873Z,12.36
2017-10-22T11:46:48.333Z,12.46
2017-10-22T11:47:58.586Z,12.54
2017-10-22T11:49:08.363Z,12.3
2017-10-22T11:50:18.048Z,12.3
2017-10-22T11:51:28.058Z,12.26
2017-10-22T11:52:37.522Z,12.4
2017-10-22T11:53:47.745Z,12.33
2017-10-22T11:54:57.556Z,12.3
2017-10-22T11:56:07.408Z,12.26
2017-10-22T11:57:17.508Z,12.56
2017-10-22T11:58:27.597Z,12.62
2017-10-22T11:59:37.456Z,12.71
2017-10-22T12:00:47.985Z,12.81
2017-10-22T12:01:58.013Z,12.94
2017-10-22T12:03:07.814Z,13.04
2017-10-22T12:04:18.251Z,13.01
2017-10-22T12:05:28.292Z,13.24
2017-10-22T12:06:38.084Z,13.29
2017-10-22T12:07:47.916Z,13.55
2017-10-22T12:08:57.428Z,13.54
2017-10-22T12:10:07.603Z,13.62
2017-10-22T12:11:16.702Z,13.53
2017-10-22T12:12:26.499Z,13.55
2017-10-22T12:13:35.979Z,13.36
2017-10-22T12:14:45.798Z,13.47
2017-10-22T12:15:55.926Z,13.57
2017-10-22T12:17:06.079Z,13.47
2017-10-22T12:18:15.953Z,13.62
2017-10-22T12:19:25.745Z,13.65
2017-10-22T12:20:35.923Z,13.61
2017-10-22T12:21:45.812Z,13.73
2017-10-22T12:22:55.308Z,13.76
2017-10-22T12:24:05.765Z,13.66
2017-10-22T12:25:15.931Z,13.53
2017-10-22T12:26:25.442Z,13.17
2017-10-22T12:27:35.259Z,13.21
2017-10-22T12:28:45.424Z,13.06
2017-10-22T12:29:55.304Z,12.95
2017-10-22T12:31:05.402Z,12.81
2017-10-22T12:32:15.220Z,12.81
2017-10-22T12:33:24.748Z,12.71
2017-10-22T12:34:33.821Z,12.59
2017-10-22T12:35:43.951Z,12.66
2017-10-22T12:36:54.470Z,12.76
2017-10-22T12:38:04.313Z,12.63
2017-10-22T12:39:14.438Z,12.79
2017-10-22T12:40:24.546Z,12.95
2017-10-22T12:41:34.409Z,12.67
2017-10-22T12:42:43.793Z,12.63
2017-10-22T12:43:54.293Z,12.73
2017-10-22T12:45:04.478Z,12.84
2017-10-22T12:46:14.625Z,12.84
2017-10-22T12:47:24.764Z,12.79
2017-10-22T12:48:34.731Z,12.88
2017-10-22T12:49:44.897Z,12.81
2017-10-22T12:50:54.392Z,12.92
2017-10-22T12:52:04.647Z,12.8
2017-10-22T12:53:15.124Z,12.88
2017-10-22T12:54:25.383Z,12.87
2017-10-22T12:55:35.572Z,12.87
2017-10-22T12:56:45.757Z,12.84
2017-10-22T12:57:56.260Z,12.81
2017-10-22T12:59:06.759Z,12.91
2017-10-22T13:00:16.567Z,12.81
2017-10-22T13:01:25.996Z,12.7
2017-10-22T13:02:35.571Z,12.85
2017-10-22T13:03:46.135Z,12.84
2017-10-22T13:04:56.653Z,12.79
2017-10-22T13:06:07.171Z,12.81
2017-10-22T13:07:16.620Z,12.92
2017-10-22T13:08:26.802Z,12.96
2017-10-22T13:09:36.905Z,13.06
2017-10-22T13:10:46.590Z,12.98
2017-10-22T13:11:56.935Z,13.1
2017-10-22T13:13:06.944Z,13.09
2017-10-22T13:14:16.619Z,13.06
2017-10-22T13:15:26.631Z,13.12
2017-10-22T13:16:36.654Z,13.04
2017-10-22T13:17:47.005Z,13.17
2017-10-22T13:18:56.722Z,13.21
2017-10-22T13:20:06.448Z,13.28
2017-10-22T13:21:16.509Z,13.5
2017-10-22T13:22:25.890Z,13.41
2017-10-22T13:23:35.577Z,13.55
2017-10-22T13:24:44.961Z,13.65
2017-10-22T13:25:55.017Z,13.55
2017-10-22T13:27:05.392Z,13.25
2017-10-22T13:28:14.793Z,12.99
2017-10-22T13:29:23.472Z,12.98
2017-10-22T13:30:33.497Z,13.06
2017-10-22T13:31:42.196Z,12.99
2017-10-22T13:32:52.238Z,12.96
2017-10-22T13:34:01.580Z,12.89
2017-10-22T13:35:11.604Z,12.8
2017-10-22T13:36:21.638Z,12.74
2017-10-22T13:37:30.722Z,12.8
2017-10-22T13:38:40.923Z,12.76
2017-10-22T13:39:51.038Z,12.87
2017-10-22T13:41:00.771Z,12.87
2017-10-22T13:42:10.915Z,12.98
2017-10-22T13:43:20.786Z,12.88
2017-10-22T13:44:30.899Z,12.98
2017-10-22T13:45:40.971Z,12.98
2017-10-22T13:46:51.094Z,13.09
2017-10-22T13:48:01.503Z,13.03
2017-10-22T13:49:10.689Z,13.13
2017-10-22T13:50:21.105Z,13.03
2017-10-22T13:51:31.406Z,12.91
2017-10-22T13:52:41.110Z,13.01
2017-10-22T13:53:51.947Z,13.04
2017-10-22T13:55:02.213Z,13.03
2017-10-22T13:56:12.655Z,13.09
2017-10-22T13:57:23.161Z,13.17
2017-10-22T13:58:32.378Z,13.21
2017-10-22T13:59:42.201Z,13.31
2017-10-22T14:00:52.119Z,13.28
2017-10-22T14:02:01.978Z,13.24
2017-10-22T14:03:11.712Z,13.07
2017-10-22T14:04:21.143Z,13.13
2017-10-22T14:05:31.011Z,13.14
2017-10-22T14:06:40.955Z,13.04
2017-10-22T14:07:50.706Z,13.06
2017-10-22T14:09:00.494Z,13.12
2017-10-22T14:10:10.347Z,13.14
2017-10-22T14:11:20.052Z,13.22
2017-10-22T14:12:30.173Z,13.31
2017-10-22T14:13:40.414Z,13.29
2017-10-22T14:14:50.237Z,13.5
2017-10-22T14:16:00.688Z,13.43
2017-10-22T14:17:10.828Z,13.54
2017-10-22T14:18:20.645Z,13.63
2017-10-22T14:19:31.086Z,13.61
2017-10-22T14:20:41.227Z,13.66
2017-10-22T14:21:51.088Z,13.51
2017-10-22T14:23:01.276Z,13.57
2017-10-22T14:24:10.719Z,13.51
2017-10-22T14:25:20.471Z,13.54
2017-10-22T14:26:30.684Z,13.76
2017-10-22T14:27:40.482Z,13.84
2017-10-22T14:28:50.533Z,13.87
2017-10-22T14:30:00.581Z,13.81
2017-10-22T14:31:09.619Z,13.84
2017-10-22T14:32:19.313Z,13.51
2017-10-22T14:33:28.665Z,13.62
2017-10-22T14:34:38.727Z,13.55
2017-10-22T14:35:48.407Z,13.51
2017-10-22T14:36:58.083Z,13.59
2017-10-22T14:38:08.527Z,13.59
2017-10-22T14:39:18.930Z,13.65
2017-10-22T14:40:28.607Z,13.63
2017-10-22T14:41:38.656Z,13.59
2017-10-22T14:42:48.351Z,13.62
2017-10-22T14:43:58.751Z,13.55
2017-10-22T14:45:09.128Z,13.53
2017-10-22T14:46:18.843Z,13.53
2017-10-22T14:47:28.998Z,13.28
2017-10-22T14:48:39.027Z,13.25
2017-10-22T14:49:49.891Z,13.07
2017-10-22T14:50:59.928Z,13.01
2017-10-22T14:52:08.949Z,13.01
2017-10-22T14:53:18.976Z,13.07
2017-10-22T14:54:28.441Z,12.98
2017-10-22T14:55:38.496Z,12.96
2017-10-22T14:56:48.941Z,12.94
2017-10-22T14:57:58.659Z,12.84
2017-10-22T14:59:08.699Z,12.77
2017-10-22T15:00:18.771Z,12.85
2017-10-22T15:01:29.086Z,12.8
2017-10-22T15:02:39.509Z,12.79